sensor_id;sensor_type;location;lat;lon;timestamp;temperature;humidity
41481;DHT22;27217;51.220;5.308;2022-12-11T00:00:31;2.40;99.90
41481;DHT22;27217;51.220;5.308;2022-12-11T00:02:57;2.40;99.90
41481;DHT22;27217;51.220;5.308;2022-12-11T00:05:22;2.40;99.90
41481;DHT22;27217;51.220;5.308;2022-12-11T00:07:48;2.20;99.90
41481;DHT22;27217;51.220;5.308;2022-12-11T00:10:14;2.20;99.90
41481;DHT22;27217;51.220;5.308;2022-12-11T00:12:40;2.30;99.90
41481;DHT22;27217;51.220;5.308;2022-12-11T00:15:07;2.40;99.90
41481;DHT22;27217;51.220;5.308;2022-12-11T00:17:32;2.40;99.90
41481;DHT22;27217;51.220;5.308;2022-12-11T00:19:59;2.30;99.90
41481;DHT22;27217;51.220;5.308;2022-12-11T00:22:25;2.10;99.90
41481;DHT22;27217;51.220;5.308;2022-12-11T00:24:51;2.10;99.90
41481;DHT22;27217;51.220;5.308;2022-12-11T00:27:17;2.00;99.90
41481;DHT22;27217;51.220;5.308;2022-12-11T00:29:43;2.20;99.90
41481;DHT22;27217;51.220;5.308;2022-12-11T00:32:09;2.10;99.90
41481;DHT22;27217;51.220;5.308;2022-12-11T00:34:34;2.10;99.90
41481;DHT22;27217;51.220;5.308;2022-12-11T00:37:01;1.80;99.90
41481;DHT22;27217;51.220;5.308;2022-12-11T00:39:27;2.00;99.90
41481;DHT22;27217;51.220;5.308;2022-12-11T00:41:53;2.10;99.90
41481;DHT22;27217;51.220;5.308;2022-12-11T00:44:19;2.50;99.90
41481;DHT22;27217;51.220;5.308;2022-12-11T00:46:45;2.60;99.90
41481;DHT22;27217;51.220;5.308;2022-12-11T00:49:11;3.10;99.90
41481;DHT22;27217;51.220;5.308;2022-12-11T00:51:37;2.50;99.90
41481;DHT22;27217;51.220;5.308;2022-12-11T00:54:03;2.80;99.90
41481;DHT22;27217;51.220;5.308;2022-12-11T00:56:29;2.50;99.90
41481;DHT22;27217;51.220;5.308;2022-12-11T00:58:54;2.20;99.90
41481;DHT22;27217;51.220;5.308;2022-12-11T01:01:23;2.00;99.90
41481;DHT22;27217;51.220;5.308;2022-12-11T01:03:50;2.10;99.90
41481;DHT22;27217;51.220;5.308;2022-12-11T01:06:19;2.10;99.90
41481;DHT22;27217;51.220;5.308;2022-12-11T01:08:46;2.10;99.90
41481;DHT22;27217;51.220;5.308;2022-12-11T01:11:15;2.10;99.90
41481;DHT22;27217;51.220;5.308;2022-12-11T01:13:41;2.20;99.90
41481;DHT22;27217;51.220;5.308;2022-12-11T01:16:13;2.10;99.90
41481;DHT22;27217;51.220;5.308;2022-12-11T01:18:40;2.40;99.90
41481;DHT22;27217;51.220;5.308;2022-12-11T01:21:07;2.10;99.90
41481;DHT22;27217;51.220;5.308;2022-12-11T01:23:34;2.00;99.90
41481;DHT22;27217;51.220;5.308;2022-12-11T01:26:05;2.10;99.90
41481;DHT22;27217;51.220;5.308;2022-12-11T01:28:32;2.20;99.90
41481;DHT22;27217;51.220;5.308;2022-12-11T01:30:57;2.00;99.90
41481;DHT22;27217;51.220;5.308;2022-12-11T01:33:23;1.90;99.90
41481;DHT22;27217;51.220;5.308;2022-12-11T01:35:49;1.90;99.90
41481;DHT22;27217;51.220;5.308;2022-12-11T01:38:15;1.80;99.90
41481;DHT22;27217;51.220;5.308;2022-12-11T01:40:46;1.60;99.90
41481;DHT22;27217;51.220;5.308;2022-12-11T01:43:12;1.90;99.90
41481;DHT22;27217;51.220;5.308;2022-12-11T01:45:38;2.20;99.90
41481;DHT22;27217;51.220;5.308;2022-12-11T01:48:12;2.40;99.90
41481;DHT22;27217;51.220;5.308;2022-12-11T01:50:50;2.50;99.90
41481;DHT22;27217;51.220;5.308;2022-12-11T01:53:20;2.70;99.90
41481;DHT22;27217;51.220;5.308;2022-12-11T01:55:50;2.70;99.90
41481;DHT22;27217;51.220;5.308;2022-12-11T01:58:17;2.00;99.90
41481;DHT22;27217;51.220;5.308;2022-12-11T02:00:45;2.20;99.90
41481;DHT22;27217;51.220;5.308;2022-12-11T02:03:11;2.40;99.90
41481;DHT22;27217;51.220;5.308;2022-12-11T02:05:40;2.50;99.90
41481;DHT22;27217;51.220;5.308;2022-12-11T02:08:13;2.50;99.90
41481;DHT22;27217;51.220;5.308;2022-12-11T02:13:56;2.50;99.90
41481;DHT22;27217;51.220;5.308;2022-12-11T02:16:38;2.20;99.90
41481;DHT22;27217;51.220;5.308;2022-12-11T02:22:04;1.90;99.90
41481;DHT22;27217;51.220;5.308;2022-12-11T02:25:02;1.90;99.90
41481;DHT22;27217;51.220;5.308;2022-12-11T02:27:47;2.30;99.90
41481;DHT22;27217;51.220;5.308;2022-12-11T02:30:18;2.20;99.90
41481;DHT22;27217;51.220;5.308;2022-12-11T02:32:53;2.30;99.90
41481;DHT22;27217;51.220;5.308;2022-12-11T02:35:33;2.20;99.90
41481;DHT22;27217;51.220;5.308;2022-12-11T02:38:14;2.40;99.90
41481;DHT22;27217;51.220;5.308;2022-12-11T02:40:42;2.30;99.90
41481;DHT22;27217;51.220;5.308;2022-12-11T02:43:12;2.00;99.90
41481;DHT22;27217;51.220;5.308;2022-12-11T02:45:41;2.20;99.90
41481;DHT22;27217;51.220;5.308;2022-12-11T02:48:08;1.90;99.90
41481;DHT22;27217;51.220;5.308;2022-12-11T02:50:40;1.60;99.90
41481;DHT22;27217;51.220;5.308;2022-12-11T02:53:09;1.60;99.90
41481;DHT22;27217;51.220;5.308;2022-12-11T02:55:37;1.50;99.90
41481;DHT22;27217;51.220;5.308;2022-12-11T02:58:19;1.80;99.90
41481;DHT22;27217;51.220;5.308;2022-12-11T03:00:45;1.60;99.90
41481;DHT22;27217;51.220;5.308;2022-12-11T03:03:12;1.70;99.90
41481;DHT22;27217;51.220;5.308;2022-12-11T03:05:39;2.00;99.90
41481;DHT22;27217;51.220;5.308;2022-12-11T03:08:05;2.10;99.90
41481;DHT22;27217;51.220;5.308;2022-12-11T03:10:31;2.40;99.90
41481;DHT22;27217;51.220;5.308;2022-12-11T03:12:58;2.10;99.90
41481;DHT22;27217;51.220;5.308;2022-12-11T03:18:33;2.00;99.90
41481;DHT22;27217;51.220;5.308;2022-12-11T03:21:08;1.90;99.90
41481;DHT22;27217;51.220;5.308;2022-12-11T03:23:51;1.60;99.90
41481;DHT22;27217;51.220;5.308;2022-12-11T03:26:21;2.20;99.90
41481;DHT22;27217;51.220;5.308;2022-12-11T03:28:57;1.90;99.90
41481;DHT22;27217;51.220;5.308;2022-12-11T03:31:44;2.10;99.90
41481;DHT22;27217;51.220;5.308;2022-12-11T03:34:19;2.30;99.90
41481;DHT22;27217;51.220;5.308;2022-12-11T03:36:48;2.40;99.90
41481;DHT22;27217;51.220;5.308;2022-12-11T03:39:19;2.60;99.90
41481;DHT22;27217;51.220;5.308;2022-12-11T03:41:47;2.40;99.90
41481;DHT22;27217;51.220;5.308;2022-12-11T03:44:15;2.20;99.90
41481;DHT22;27217;51.220;5.308;2022-12-11T03:46:42;1.90;99.90
41481;DHT22;27217;51.220;5.308;2022-12-11T03:49:15;2.00;99.90
41481;DHT22;27217;51.220;5.308;2022-12-11T03:51:42;2.00;99.90
41481;DHT22;27217;51.220;5.308;2022-12-11T03:54:10;2.00;99.90
41481;DHT22;27217;51.220;5.308;2022-12-11T03:56:38;2.10;99.90
41481;DHT22;27217;51.220;5.308;2022-12-11T03:59:05;2.10;99.90
41481;DHT22;27217;51.220;5.308;2022-12-11T04:01:31;2.00;99.90
41481;DHT22;27217;51.220;5.308;2022-12-11T04:03:57;1.90;99.90
41481;DHT22;27217;51.220;5.308;2022-12-11T04:06:23;2.10;99.90
41481;DHT22;27217;51.220;5.308;2022-12-11T04:08:49;2.20;99.90
41481;DHT22;27217;51.220;5.308;2022-12-11T04:11:14;2.20;99.90
41481;DHT22;27217;51.220;5.308;2022-12-11T04:13:59;2.10;99.90
41481;DHT22;27217;51.220;5.308;2022-12-11T04:16:43;2.40;99.90
41481;DHT22;27217;51.220;5.308;2022-12-11T04:19:09;2.20;99.90
41481;DHT22;27217;51.220;5.308;2022-12-11T04:21:54;2.30;99.90
41481;DHT22;27217;51.220;5.308;2022-12-11T04:24:59;2.60;99.90
41481;DHT22;27217;51.220;5.308;2022-12-11T04:27:24;2.50;99.90
41481;DHT22;27217;51.220;5.308;2022-12-11T04:30:13;2.30;99.90
41481;DHT22;27217;51.220;5.308;2022-12-11T04:32:39;2.00;99.90
41481;DHT22;27217;51.220;5.308;2022-12-11T04:35:07;2.20;99.90
41481;DHT22;27217;51.220;5.308;2022-12-11T04:37:33;2.40;99.90
41481;DHT22;27217;51.220;5.308;2022-12-11T04:39:59;2.40;99.90
41481;DHT22;27217;51.220;5.308;2022-12-11T04:42:24;2.30;99.90
41481;DHT22;27217;51.220;5.308;2022-12-11T04:44:51;2.10;99.90
41481;DHT22;27217;51.220;5.308;2022-12-11T04:47:16;2.20;99.90
41481;DHT22;27217;51.220;5.308;2022-12-11T04:49:42;2.30;99.90
41481;DHT22;27217;51.220;5.308;2022-12-11T04:52:09;2.40;99.90
41481;DHT22;27217;51.220;5.308;2022-12-11T04:54:35;2.60;99.90
41481;DHT22;27217;51.220;5.308;2022-12-11T04:57:01;2.60;99.90
41481;DHT22;27217;51.220;5.308;2022-12-11T04:59:27;2.80;99.90
41481;DHT22;27217;51.220;5.308;2022-12-11T05:01:53;2.90;99.90
41481;DHT22;27217;51.220;5.308;2022-12-11T05:04:18;2.70;99.90
41481;DHT22;27217;51.220;5.308;2022-12-11T05:06:44;2.30;99.90
41481;DHT22;27217;51.220;5.308;2022-12-11T05:09:11;2.40;99.90
41481;DHT22;27217;51.220;5.308;2022-12-11T05:11:37;2.40;99.90
41481;DHT22;27217;51.220;5.308;2022-12-11T05:14:03;2.40;99.90
41481;DHT22;27217;51.220;5.308;2022-12-11T05:16:30;2.60;99.90
41481;DHT22;27217;51.220;5.308;2022-12-11T05:18:55;2.80;99.90
41481;DHT22;27217;51.220;5.308;2022-12-11T05:21:21;2.60;99.90
41481;DHT22;27217;51.220;5.308;2022-12-11T05:23:47;2.50;99.90
41481;DHT22;27217;51.220;5.308;2022-12-11T05:26:16;2.50;99.90
41481;DHT22;27217;51.220;5.308;2022-12-11T05:28:42;2.50;99.90
41481;DHT22;27217;51.220;5.308;2022-12-11T05:31:14;3.00;99.90
41481;DHT22;27217;51.220;5.308;2022-12-11T05:33:42;2.90;99.90
41481;DHT22;27217;51.220;5.308;2022-12-11T05:36:16;2.90;99.90
41481;DHT22;27217;51.220;5.308;2022-12-11T05:38:43;2.60;99.90
41481;DHT22;27217;51.220;5.308;2022-12-11T05:41:12;2.50;99.90
41481;DHT22;27217;51.220;5.308;2022-12-11T05:43:38;2.60;99.90
41481;DHT22;27217;51.220;5.308;2022-12-11T05:46:10;2.50;99.90
41481;DHT22;27217;51.220;5.308;2022-12-11T05:48:37;2.50;99.90
41481;DHT22;27217;51.220;5.308;2022-12-11T05:51:05;2.20;99.90
41481;DHT22;27217;51.220;5.308;2022-12-11T05:53:31;2.10;99.90
41481;DHT22;27217;51.220;5.308;2022-12-11T05:56:11;2.00;99.90
41481;DHT22;27217;51.220;5.308;2022-12-11T05:58:39;2.20;99.90
41481;DHT22;27217;51.220;5.308;2022-12-11T06:01:10;2.30;99.90
41481;DHT22;27217;51.220;5.308;2022-12-11T06:03:36;2.20;99.90
41481;DHT22;27217;51.220;5.308;2022-12-11T06:06:04;2.20;99.90
41481;DHT22;27217;51.220;5.308;2022-12-11T06:08:30;2.20;99.90
41481;DHT22;27217;51.220;5.308;2022-12-11T06:10:56;2.40;99.90
41481;DHT22;27217;51.220;5.308;2022-12-11T06:13:22;2.70;99.90
41481;DHT22;27217;51.220;5.308;2022-12-11T06:15:48;2.70;99.90
41481;DHT22;27217;51.220;5.308;2022-12-11T06:18:14;2.80;99.90
41481;DHT22;27217;51.220;5.308;2022-12-11T06:20:40;2.40;99.90
41481;DHT22;27217;51.220;5.308;2022-12-11T06:23:06;2.20;99.90
41481;DHT22;27217;51.220;5.308;2022-12-11T06:25:32;1.90;99.90
41481;DHT22;27217;51.220;5.308;2022-12-11T06:27:58;1.70;99.90
41481;DHT22;27217;51.220;5.308;2022-12-11T06:30:24;1.80;99.90
41481;DHT22;27217;51.220;5.308;2022-12-11T06:32:50;2.10;99.90
41481;DHT22;27217;51.220;5.308;2022-12-11T06:35:16;2.30;99.90
41481;DHT22;27217;51.220;5.308;2022-12-11T06:37:44;2.80;99.90
41481;DHT22;27217;51.220;5.308;2022-12-11T06:40:10;2.60;99.90
41481;DHT22;27217;51.220;5.308;2022-12-11T06:42:37;2.00;99.90
41481;DHT22;27217;51.220;5.308;2022-12-11T06:45:03;1.70;99.90
41481;DHT22;27217;51.220;5.308;2022-12-11T06:47:29;1.50;99.90
41481;DHT22;27217;51.220;5.308;2022-12-11T06:49:56;1.70;99.90
41481;DHT22;27217;51.220;5.308;2022-12-11T06:52:23;1.60;99.90
41481;DHT22;27217;51.220;5.308;2022-12-11T06:54:49;1.80;99.90
41481;DHT22;27217;51.220;5.308;2022-12-11T06:57:16;2.00;99.90
41481;DHT22;27217;51.220;5.308;2022-12-11T06:59:42;2.10;99.90
41481;DHT22;27217;51.220;5.308;2022-12-11T07:02:12;2.00;99.90
41481;DHT22;27217;51.220;5.308;2022-12-11T07:04:39;2.20;99.90
41481;DHT22;27217;51.220;5.308;2022-12-11T07:07:06;2.20;99.90
41481;DHT22;27217;51.220;5.308;2022-12-11T07:09:37;2.20;99.90
41481;DHT22;27217;51.220;5.308;2022-12-11T07:12:04;2.10;99.90
41481;DHT22;27217;51.220;5.308;2022-12-11T07:14:30;2.20;99.90
41481;DHT22;27217;51.220;5.308;2022-12-11T07:16:57;2.00;99.90
41481;DHT22;27217;51.220;5.308;2022-12-11T07:19:26;1.80;99.90
41481;DHT22;27217;51.220;5.308;2022-12-11T07:21:52;1.90;99.90
41481;DHT22;27217;51.220;5.308;2022-12-11T07:24:23;2.20;99.90
41481;DHT22;27217;51.220;5.308;2022-12-11T07:26:49;2.30;99.90
41481;DHT22;27217;51.220;5.308;2022-12-11T07:29:15;2.40;99.90
41481;DHT22;27217;51.220;5.308;2022-12-11T07:31:41;2.20;99.90
41481;DHT22;27217;51.220;5.308;2022-12-11T07:34:07;2.30;99.90
41481;DHT22;27217;51.220;5.308;2022-12-11T07:36:33;2.30;99.90
41481;DHT22;27217;51.220;5.308;2022-12-11T07:39:00;2.40;99.90
41481;DHT22;27217;51.220;5.308;2022-12-11T07:41:26;2.50;99.90
41481;DHT22;27217;51.220;5.308;2022-12-11T07:43:54;2.30;99.90
41481;DHT22;27217;51.220;5.308;2022-12-11T07:46:22;2.20;99.90
41481;DHT22;27217;51.220;5.308;2022-12-11T07:48:49;2.30;99.90
41481;DHT22;27217;51.220;5.308;2022-12-11T07:51:30;2.60;99.90
41481;DHT22;27217;51.220;5.308;2022-12-11T07:54:01;2.50;99.90
41481;DHT22;27217;51.220;5.308;2022-12-11T07:56:28;2.30;99.90
41481;DHT22;27217;51.220;5.308;2022-12-11T07:58:54;2.10;99.90
41481;DHT22;27217;51.220;5.308;2022-12-11T08:01:22;2.30;99.90
41481;DHT22;27217;51.220;5.308;2022-12-11T08:03:49;2.10;99.90
41481;DHT22;27217;51.220;5.308;2022-12-11T08:06:15;2.20;99.90
41481;DHT22;27217;51.220;5.308;2022-12-11T08:08:42;2.30;99.90
41481;DHT22;27217;51.220;5.308;2022-12-11T08:11:11;2.30;99.90
41481;DHT22;27217;51.220;5.308;2022-12-11T08:13:37;2.20;99.90
41481;DHT22;27217;51.220;5.308;2022-12-11T08:16:09;2.10;99.90
41481;DHT22;27217;51.220;5.308;2022-12-11T08:18:36;1.80;99.90
41481;DHT22;27217;51.220;5.308;2022-12-11T08:21:16;1.90;99.90
41481;DHT22;27217;51.220;5.308;2022-12-11T08:23:42;2.00;99.90
41481;DHT22;27217;51.220;5.308;2022-12-11T08:26:15;2.10;99.90
41481;DHT22;27217;51.220;5.308;2022-12-11T08:28:42;2.10;99.90
41481;DHT22;27217;51.220;5.308;2022-12-11T08:31:09;2.20;99.90
41481;DHT22;27217;51.220;5.308;2022-12-11T08:33:36;2.30;99.90
41481;DHT22;27217;51.220;5.308;2022-12-11T08:36:03;2.30;99.90
41481;DHT22;27217;51.220;5.308;2022-12-11T08:38:29;2.40;99.90
41481;DHT22;27217;51.220;5.308;2022-12-11T08:40:55;2.70;99.90
41481;DHT22;27217;51.220;5.308;2022-12-11T08:43:22;2.70;99.90
41481;DHT22;27217;51.220;5.308;2022-12-11T08:45:49;2.70;99.90
41481;DHT22;27217;51.220;5.308;2022-12-11T08:48:15;2.70;99.90
41481;DHT22;27217;51.220;5.308;2022-12-11T08:50:41;2.40;99.90
41481;DHT22;27217;51.220;5.308;2022-12-11T08:53:06;2.30;99.90
41481;DHT22;27217;51.220;5.308;2022-12-11T08:55:33;2.20;99.90
41481;DHT22;27217;51.220;5.308;2022-12-11T08:57:58;2.30;99.90
41481;DHT22;27217;51.220;5.308;2022-12-11T09:00:24;2.40;99.90
41481;DHT22;27217;51.220;5.308;2022-12-11T09:02:50;2.50;99.90
41481;DHT22;27217;51.220;5.308;2022-12-11T09:05:16;2.30;99.90
41481;DHT22;27217;51.220;5.308;2022-12-11T09:07:42;2.10;99.90
41481;DHT22;27217;51.220;5.308;2022-12-11T09:10:08;2.00;99.90
41481;DHT22;27217;51.220;5.308;2022-12-11T09:12:35;1.90;99.90
41481;DHT22;27217;51.220;5.308;2022-12-11T09:15:02;2.20;99.90
41481;DHT22;27217;51.220;5.308;2022-12-11T09:17:28;2.00;99.90
41481;DHT22;27217;51.220;5.308;2022-12-11T09:19:54;2.10;99.90
41481;DHT22;27217;51.220;5.308;2022-12-11T09:22:20;2.20;99.90
41481;DHT22;27217;51.220;5.308;2022-12-11T09:24:46;2.40;99.90
41481;DHT22;27217;51.220;5.308;2022-12-11T09:27:12;2.60;99.90
41481;DHT22;27217;51.220;5.308;2022-12-11T09:29:38;2.50;99.90
41481;DHT22;27217;51.220;5.308;2022-12-11T09:32:04;2.70;99.90
41481;DHT22;27217;51.220;5.308;2022-12-11T09:34:31;2.40;99.90
41481;DHT22;27217;51.220;5.308;2022-12-11T09:36:56;2.70;99.90
41481;DHT22;27217;51.220;5.308;2022-12-11T09:39:22;2.40;99.90
41481;DHT22;27217;51.220;5.308;2022-12-11T09:42:04;2.60;99.90
41481;DHT22;27217;51.220;5.308;2022-12-11T09:44:34;2.70;99.90
41481;DHT22;27217;51.220;5.308;2022-12-11T09:47:22;2.80;99.90
41481;DHT22;27217;51.220;5.308;2022-12-11T09:49:55;2.30;99.90
41481;DHT22;27217;51.220;5.308;2022-12-11T09:55:25;2.70;99.90
41481;DHT22;27217;51.220;5.308;2022-12-11T09:58:05;2.20;99.90
41481;DHT22;27217;51.220;5.308;2022-12-11T10:00:43;2.30;99.90
41481;DHT22;27217;51.220;5.308;2022-12-11T10:06:17;2.50;99.90
41481;DHT22;27217;51.220;5.308;2022-12-11T10:09:21;2.20;99.90
41481;DHT22;27217;51.220;5.308;2022-12-11T10:17:08;2.90;99.90
41481;DHT22;27217;51.220;5.308;2022-12-11T10:19:35;2.40;99.90
41481;DHT22;27217;51.220;5.308;2022-12-11T10:22:02;2.50;99.90
41481;DHT22;27217;51.220;5.308;2022-12-11T10:27:31;2.60;99.90
41481;DHT22;27217;51.220;5.308;2022-12-11T10:30:06;2.80;99.90
41481;DHT22;27217;51.220;5.308;2022-12-11T10:35:31;2.70;99.90
41481;DHT22;27217;51.220;5.308;2022-12-11T10:38:12;2.90;99.90
41481;DHT22;27217;51.220;5.308;2022-12-11T10:40:44;2.70;99.90
41481;DHT22;27217;51.220;5.308;2022-12-11T10:43:10;2.60;99.90
41481;DHT22;27217;51.220;5.308;2022-12-11T10:45:36;2.60;99.90
41481;DHT22;27217;51.220;5.308;2022-12-11T10:48:05;2.80;99.90
41481;DHT22;27217;51.220;5.308;2022-12-11T10:50:31;2.90;99.90
41481;DHT22;27217;51.220;5.308;2022-12-11T10:52:57;3.00;99.90
41481;DHT22;27217;51.220;5.308;2022-12-11T10:55:28;2.90;99.90
41481;DHT22;27217;51.220;5.308;2022-12-11T10:58:11;2.50;99.90
41481;DHT22;27217;51.220;5.308;2022-12-11T11:00:41;2.60;99.90
41481;DHT22;27217;51.220;5.308;2022-12-11T11:03:22;2.70;99.90
41481;DHT22;27217;51.220;5.308;2022-12-11T11:05:49;3.10;99.90
41481;DHT22;27217;51.220;5.308;2022-12-11T11:08:20;3.30;99.90
41481;DHT22;27217;51.220;5.308;2022-12-11T11:10:57;3.40;99.90
41481;DHT22;27217;51.220;5.308;2022-12-11T11:13:26;3.60;99.90
41481;DHT22;27217;51.220;5.308;2022-12-11T11:16:07;3.50;99.90
41481;DHT22;27217;51.220;5.308;2022-12-11T11:18:38;3.60;99.90
41481;DHT22;27217;51.220;5.308;2022-12-11T11:21:05;3.40;99.90
41481;DHT22;27217;51.220;5.308;2022-12-11T11:23:31;3.20;99.90
41481;DHT22;27217;51.220;5.308;2022-12-11T11:26:00;3.10;99.90
41481;DHT22;27217;51.220;5.308;2022-12-11T11:28:35;2.70;99.90
41481;DHT22;27217;51.220;5.308;2022-12-11T11:31:09;2.80;99.90
41481;DHT22;27217;51.220;5.308;2022-12-11T11:33:36;3.00;99.90
41481;DHT22;27217;51.220;5.308;2022-12-11T11:36:21;2.80;99.90
41481;DHT22;27217;51.220;5.308;2022-12-11T11:39:16;2.90;99.90
41481;DHT22;27217;51.220;5.308;2022-12-11T11:42:07;2.70;99.90
41481;DHT22;27217;51.220;5.308;2022-12-11T11:44:41;2.50;99.90
41481;DHT22;27217;51.220;5.308;2022-12-11T11:47:20;2.70;99.90
41481;DHT22;27217;51.220;5.308;2022-12-11T11:50:05;2.90;99.90
41481;DHT22;27217;51.220;5.308;2022-12-11T11:52:45;3.20;99.90
41481;DHT22;27217;51.220;5.308;2022-12-11T11:58:20;3.50;99.90
41481;DHT22;27217;51.220;5.308;2022-12-11T12:00:52;3.40;99.90
41481;DHT22;27217;51.220;5.308;2022-12-11T12:03:20;3.10;99.90
41481;DHT22;27217;51.220;5.308;2022-12-11T12:05:58;3.00;99.90
41481;DHT22;27217;51.220;5.308;2022-12-11T12:19:02;2.90;99.90
41481;DHT22;27217;51.220;5.308;2022-12-11T12:21:37;2.80;99.90
41481;DHT22;27217;51.220;5.308;2022-12-11T12:27:17;3.00;99.90
41481;DHT22;27217;51.220;5.308;2022-12-11T12:35:15;2.60;99.90
41481;DHT22;27217;51.220;5.308;2022-12-11T12:48:53;2.90;99.90
41481;DHT22;27217;51.220;5.308;2022-12-11T12:51:21;2.70;99.90
41481;DHT22;27217;51.220;5.308;2022-12-11T12:53:53;3.00;99.90
41481;DHT22;27217;51.220;5.308;2022-12-11T12:56:21;3.00;99.90
41481;DHT22;27217;51.220;5.308;2022-12-11T12:58:47;2.70;99.90
41481;DHT22;27217;51.220;5.308;2022-12-11T13:01:21;3.00;99.90
41481;DHT22;27217;51.220;5.308;2022-12-11T13:09:20;3.00;99.90
41481;DHT22;27217;51.220;5.308;2022-12-11T13:11:48;2.80;99.90
41481;DHT22;27217;51.220;5.308;2022-12-11T13:16:46;3.00;99.90
41481;DHT22;27217;51.220;5.308;2022-12-11T13:22:20;3.40;99.90
41481;DHT22;27217;51.220;5.308;2022-12-11T13:25:01;3.20;99.90
41481;DHT22;27217;51.220;5.308;2022-12-11T13:32:40;3.00;99.90
41481;DHT22;27217;51.220;5.308;2022-12-11T13:35:14;2.80;99.90
41481;DHT22;27217;51.220;5.308;2022-12-11T13:37:42;2.80;99.90
41481;DHT22;27217;51.220;5.308;2022-12-11T13:40:20;2.70;99.90
41481;DHT22;27217;51.220;5.308;2022-12-11T13:42:49;2.70;99.90
41481;DHT22;27217;51.220;5.308;2022-12-11T13:45:20;2.60;99.90
41481;DHT22;27217;51.220;5.308;2022-12-11T13:47:47;2.60;99.90
41481;DHT22;27217;51.220;5.308;2022-12-11T13:50:29;3.00;99.90
41481;DHT22;27217;51.220;5.308;2022-12-11T13:52:58;2.70;99.90
41481;DHT22;27217;51.220;5.308;2022-12-11T13:55:31;2.70;99.90
41481;DHT22;27217;51.220;5.308;2022-12-11T13:57:57;2.60;99.90
41481;DHT22;27217;51.220;5.308;2022-12-11T14:00:29;2.50;99.90
41481;DHT22;27217;51.220;5.308;2022-12-11T14:02:58;2.60;99.90
41481;DHT22;27217;51.220;5.308;2022-12-11T14:05:25;2.90;99.90
41481;DHT22;27217;51.220;5.308;2022-12-11T14:07:58;3.20;99.90
41481;DHT22;27217;51.220;5.308;2022-12-11T14:10:29;2.90;99.90
41481;DHT22;27217;51.220;5.308;2022-12-11T14:15:30;2.60;99.90
41481;DHT22;27217;51.220;5.308;2022-12-11T14:17:58;2.70;99.90
41481;DHT22;27217;51.220;5.308;2022-12-11T14:20:30;2.90;99.90
41481;DHT22;27217;51.220;5.308;2022-12-11T14:23:17;3.00;99.90
41481;DHT22;27217;51.220;5.308;2022-12-11T14:25:53;2.90;99.90
41481;DHT22;27217;51.220;5.308;2022-12-11T14:28:20;2.80;99.90
41481;DHT22;27217;51.220;5.308;2022-12-11T14:30:49;3.00;99.90
41481;DHT22;27217;51.220;5.308;2022-12-11T14:33:16;3.00;99.90
41481;DHT22;27217;51.220;5.308;2022-12-11T14:35:44;3.00;99.90
41481;DHT22;27217;51.220;5.308;2022-12-11T14:38:21;2.70;99.90
41481;DHT22;27217;51.220;5.308;2022-12-11T14:40:51;2.90;99.90
41481;DHT22;27217;51.220;5.308;2022-12-11T14:43:37;2.80;99.90
41481;DHT22;27217;51.220;5.308;2022-12-11T14:46:14;2.90;99.90
41481;DHT22;27217;51.220;5.308;2022-12-11T14:48:52;2.50;99.90
41481;DHT22;27217;51.220;5.308;2022-12-11T14:51:20;2.70;99.90
41481;DHT22;27217;51.220;5.308;2022-12-11T14:53:49;2.70;99.90
41481;DHT22;27217;51.220;5.308;2022-12-11T14:56:18;2.50;99.90
41481;DHT22;27217;51.220;5.308;2022-12-11T14:59:04;2.60;99.90
41481;DHT22;27217;51.220;5.308;2022-12-11T15:01:35;2.50;99.90
41481;DHT22;27217;51.220;5.308;2022-12-11T15:04:04;2.70;99.90
41481;DHT22;27217;51.220;5.308;2022-12-11T15:06:33;2.80;99.90
41481;DHT22;27217;51.220;5.308;2022-12-11T15:11:55;2.60;99.90
41481;DHT22;27217;51.220;5.308;2022-12-11T15:14:22;2.60;99.90
41481;DHT22;27217;51.220;5.308;2022-12-11T15:16:51;2.40;99.90
41481;DHT22;27217;51.220;5.308;2022-12-11T15:21:49;2.70;99.90
41481;DHT22;27217;51.220;5.308;2022-12-11T15:24:24;2.70;99.90
41481;DHT22;27217;51.220;5.308;2022-12-11T15:26:56;2.80;99.90
41481;DHT22;27217;51.220;5.308;2022-12-11T15:29:26;2.80;99.90
41481;DHT22;27217;51.220;5.308;2022-12-11T15:34:55;2.70;99.90
41481;DHT22;27217;51.220;5.308;2022-12-11T15:39:47;2.90;99.90
41481;DHT22;27217;51.220;5.308;2022-12-11T15:42:15;2.90;99.90
41481;DHT22;27217;51.220;5.308;2022-12-11T15:44:46;3.00;99.90
41481;DHT22;27217;51.220;5.308;2022-12-11T15:47:13;2.80;99.90
41481;DHT22;27217;51.220;5.308;2022-12-11T15:49:40;2.80;99.90
41481;DHT22;27217;51.220;5.308;2022-12-11T15:52:06;2.80;99.90
41481;DHT22;27217;51.220;5.308;2022-12-11T15:54:32;2.60;99.90
41481;DHT22;27217;51.220;5.308;2022-12-11T15:57:01;2.50;99.90
41481;DHT22;27217;51.220;5.308;2022-12-11T15:59:28;2.50;99.90
41481;DHT22;27217;51.220;5.308;2022-12-11T16:01:55;2.60;99.90
41481;DHT22;27217;51.220;5.308;2022-12-11T16:04:26;2.70;99.90
41481;DHT22;27217;51.220;5.308;2022-12-11T16:06:51;2.70;99.90
41481;DHT22;27217;51.220;5.308;2022-12-11T16:09:18;2.80;99.90
41481;DHT22;27217;51.220;5.308;2022-12-11T16:11:44;2.80;99.90
41481;DHT22;27217;51.220;5.308;2022-12-11T16:14:10;2.80;99.90
41481;DHT22;27217;51.220;5.308;2022-12-11T16:16:36;2.70;99.90
41481;DHT22;27217;51.220;5.308;2022-12-11T16:19:02;2.70;99.90
41481;DHT22;27217;51.220;5.308;2022-12-11T16:21:27;2.80;99.90
41481;DHT22;27217;51.220;5.308;2022-12-11T16:23:54;2.80;99.90
41481;DHT22;27217;51.220;5.308;2022-12-11T16:26:19;2.90;99.90
41481;DHT22;27217;51.220;5.308;2022-12-11T16:28:46;2.70;99.90
41481;DHT22;27217;51.220;5.308;2022-12-11T16:31:13;2.60;99.90
41481;DHT22;27217;51.220;5.308;2022-12-11T16:33:39;2.70;99.90
41481;DHT22;27217;51.220;5.308;2022-12-11T16:36:14;2.60;99.90
41481;DHT22;27217;51.220;5.308;2022-12-11T16:38:46;2.60;99.90
41481;DHT22;27217;51.220;5.308;2022-12-11T16:41:13;2.60;99.90
41481;DHT22;27217;51.220;5.308;2022-12-11T16:43:39;2.70;99.90
41481;DHT22;27217;51.220;5.308;2022-12-11T16:46:05;2.70;99.90
41481;DHT22;27217;51.220;5.308;2022-12-11T16:48:31;2.70;99.90
41481;DHT22;27217;51.220;5.308;2022-12-11T16:50:57;2.90;99.90
41481;DHT22;27217;51.220;5.308;2022-12-11T16:53:23;2.80;99.90
41481;DHT22;27217;51.220;5.308;2022-12-11T16:55:49;2.60;99.90
41481;DHT22;27217;51.220;5.308;2022-12-11T16:58:16;2.70;99.90
41481;DHT22;27217;51.220;5.308;2022-12-11T17:00:49;2.50;99.90
41481;DHT22;27217;51.220;5.308;2022-12-11T17:03:30;2.60;99.90
41481;DHT22;27217;51.220;5.308;2022-12-11T17:05:56;2.60;99.90
41481;DHT22;27217;51.220;5.308;2022-12-11T17:08:23;2.60;99.90
41481;DHT22;27217;51.220;5.308;2022-12-11T17:10:50;2.40;99.90
41481;DHT22;27217;51.220;5.308;2022-12-11T17:13:17;2.50;99.90
41481;DHT22;27217;51.220;5.308;2022-12-11T17:15:44;2.50;99.90
41481;DHT22;27217;51.220;5.308;2022-12-11T17:18:11;2.50;99.90
41481;DHT22;27217;51.220;5.308;2022-12-11T17:20:41;2.60;99.90
41481;DHT22;27217;51.220;5.308;2022-12-11T17:23:07;2.60;99.90
41481;DHT22;27217;51.220;5.308;2022-12-11T17:25:38;2.50;99.90
41481;DHT22;27217;51.220;5.308;2022-12-11T17:28:03;2.50;99.90